Airfield :
LOGIN :

Register | Disclaimer

   EN    FR    IT 

 










Legend :    VFR   Marginal VFR   IFR   Intensive IFR   Very Intensive IFR
Visi :
Ceiling :
>= 8 km
>= 3000ft
5 to 8 km
1000 to 3000 ft
1500m to 5 km
500 to 1000 ft
800 to 1500m
200 to 500 ft
< 800m
< 200 ft
Symbols :   Thunderstorms  Fog  Heavy snow  Heavy precipitations  Wind > 20 kt
SIGMETs :     Misc.  Thunderstorms  Icing  Turbulence  Mountain Waves  Volcanic Ashes






- Airport Elevation : 1300 ft
- IATA code : LIG


LFBL - Limoges

CURRENT METAR :
  • 260430Z AUTO 10001KT 9999 FEW028/// SCT035/// BKN044/// ///TCU 06/04 Q1017 TEMPO 4000 -RA OVC012

EXPIRED METARs :
  • 260400Z AUTO VRB02KT 9999 SCT034 BKN078 OVC100 06/04 Q1016 TEMPO 4000 -RA OVC012
  • 260330Z AUTO 08003KT CAVOK 06/04 Q1017 TEMPO 4000 -RA OVC012
  • 260300Z AUTO 10002KT CAVOK 06/04 Q1017 TEMPO 4000 -RA OVC012
  • 260230Z AUTO 09003KT 9999 SCT030 OVC090 07/04 Q1017 TEMPO 4000 -RA OVC012
  • 260200Z AUTO 09002KT CAVOK 07/04 Q1017 NOSIG

TAF TAF LFBL
Valid from the 26 at 00:00 until the 27 at 00:00 UTC


252300Z 2600/2624 VRB02KT CAVOK
BECMG 2601/2603 BKN025
PROB30
TEMPO 2604/2607 4000 -RA OVC012
BECMG 2609/2611 20008KT
PROB30
TEMPO 2609/2611 BKN003
PROB30
TEMPO 2612/2615 -RA BKN012
BECMG 2619/2621 BKN006
PROB30
TEMPO 2620/2623 BKN003
ATIS : +33 5 55 48 40 37



MET'MAP, your aeronautical weather chart ! - Copyright ORBIFLY December 2007 - Disclaimer

ORBIFLY MET'MAP TEAM :

Programming & Development : Alexandra Zaïnal
Concept & original design : Baudouin d'Aumeries
Assistance for programming : Marc-Olivier Méhu
Technical & hardware support : Manuel Goepfert

Contact : metmap@orbifly.com




SOURCES & CREDITS :

   NOAA